Mn Pelican — FMLR — position and weather

sailwx.info

Track history (hours):
 
Tides and Currents Weather Stations Pressure Air Temp Water Temp Dewpoint Dewpoint Depression Visibility Wind Speed Wind Dir Waves Ship Positions

Mn Pelican

Last reported at 2016-Dec-03 22:17 UTC. Time now 2016-Dec-05 10:29 UTC.
Position N 49°52' W 003°35'.

Length 155 m; draft 6 m.

Type: Ship. MMSI: 228315700.

Date/timePositionNaut miles runAvg speedWind from/ knotsBaromVisibWave heightAir tempDewpointWater temp
2016-Dec-03 22:17N 49°52' W 003°35'1114.4
2016-Dec-03 21:33N 49°59' W 003°23'1414.3
2016-Dec-03 20:33N 50°06' W 003°03'1414.3
2016-Dec-03 19:33N 50°13' W 002°44'3515.1
2016-Dec-03 17:14N 50°31' W 001°57'913.0
2016-Dec-03 16:33N 50°40' W 001°56'3 3.2
2016-Dec-03 15:32N 50°42' W 001°59'0 0.0
2016-Dec-03 14:32N 50°42' W 001°59'0 0.0
2016-Dec-03 13:31N 50°42' W 001°59'0 0.0
2016-Dec-03 12:31N 50°42' W 001°59'0 0.0
2016-Dec-03 11:30N 50°42' W 001°59'0 0.0
2016-Dec-03 10:33N 50°42' W 001°59'5 4.8
2016-Dec-03 09:33N 50°39' W 001°54'4 4.3
2016-Dec-03 08:33N 50°35' W 001°53'23012.8
2016-Dec-02 14:33N 47°31' W 005°26'1715.9
2016-Dec-02 13:29N 47°15' W 005°17'1415.6
2016-Dec-02 12:33N 47°02' W 005°10'6913.9
2016-Dec-02 07:33N 45°58' W 004°32'1615.6
2016-Dec-02 06:32N 45°43' W 004°24'1615.6
2016-Dec-02 05:29N 45°27' W 004°16'1515.5
2016-Dec-02 04:32N 45°14' W 004°08'1515.0
2016-Dec-02 03:32N 44°59' W 004°01'1515.1
2016-Dec-02 02:32N 44°46' W 003°53'298 6.8
2016-Nov-30 06:31N 49°44' W 003°50'1515.1
2016-Nov-30 05:33N 49°53' W 003°33'1514.6
2016-Nov-30 04:33N 50°02' W 003°14'1514.9
2016-Nov-30 03:33N 50°10' W 002°54'1615.4
2016-Nov-30 02:32N 50°17' W 002°32'2416.4
2016-Nov-30 01:04N 50°29' W 001°60'816.0
2016-Nov-30 00:33N 50°36' W 001°54'7 7.0
2016-Nov-29 23:32N 50°42' W 001°59'0 0.0
2016-Nov-29 22:31N 50°42' W 001°59'0 0.0
2016-Nov-29 21:31N 50°42' W 001°59'0 0.0
2016-Nov-29 20:31N 50°42' W 001°59'0 0.1
2016-Nov-29 19:33N 50°42' W 001°60'10 9.6
2016-Nov-29 18:33N 50°34' W 001°53'2216.5
2016-Nov-29 17:15N 50°13' W 002°03'1317.9
2016-Nov-29 16:32N 50°02' W 002°12'12417.5
2016-Nov-29 09:28N 49°03' W 005°01'1517.0
2016-Nov-29 08:33N 48°55' W 005°21'8316.2
2016-Nov-29 03:26N 47°32' W 005°26'1719.2
2016-Nov-29 02:33N 47°17' W 005°17'159 3.2
2016-Nov-27 00:22N 49°45' W 003°51'1315.0
2016-Nov-26 23:29N 49°53' W 003°35'1415.6
2016-Nov-26 22:33N 50°01' W 003°16'1515.5
2016-Nov-26 21:33N 50°08' W 002°55'1715.6
2016-Nov-26 20:29N 50°16' W 002°31'2914.9
2016-Nov-26 18:33N 50°33' W 001°55'10 9.9
2016-Nov-26 17:33N 50°42' W 001°59'0 0.1
2016-Nov-26 16:28N 50°42' W 001°59'0 0.0
2016-Nov-26 15:33N 50°42' W 001°59'0 0.0
2016-Nov-26 14:33N 50°42' W 001°59'0 0.0
2016-Nov-26 13:32N 50°42' W 001°59'0 0.0
2016-Nov-26 12:32N 50°42' W 001°59'0 0.0
2016-Nov-26 11:32N 50°42' W 001°59'0 0.0
2016-Nov-26 10:31N 50°42' W 001°59'1 0.8
2016-Nov-26 09:33N 50°42' W 001°58'8 7.6
2016-Nov-26 08:33N 50°35' W 001°53'  
Track history (hours):
 
Tides and Currents Weather Stations Pressure Air Temp Water Temp Dewpoint Dewpoint Depression Visibility Wind Speed Wind Dir Waves Ship Positions

Mn Pelican

Last reported at 2016-Dec-03 22:17 UTC. Time now 2016-Dec-05 10:29 UTC.
Position N 49°52' W 003°35'.

Length 155 m; draft 6 m.

Type: Ship. MMSI: 228315700.

Date/timePositionNaut miles runAvg speedWind from/ knotsBaromVisibWave heightAir tempDewpointWater temp
2016-Dec-03 22:17N 49°52' W 003°35'1114.4
2016-Dec-03 21:33N 49°59' W 003°23'1414.3
2016-Dec-03 20:33N 50°06' W 003°03'1414.3
2016-Dec-03 19:33N 50°13' W 002°44'3515.1
2016-Dec-03 17:14N 50°31' W 001°57'913.0
2016-Dec-03 16:33N 50°40' W 001°56'3 3.2
2016-Dec-03 15:32N 50°42' W 001°59'0 0.0
2016-Dec-03 14:32N 50°42' W 001°59'0 0.0
2016-Dec-03 13:31N 50°42' W 001°59'0 0.0
2016-Dec-03 12:31N 50°42' W 001°59'0 0.0
2016-Dec-03 11:30N 50°42' W 001°59'0 0.0
2016-Dec-03 10:33N 50°42' W 001°59'5 4.8
2016-Dec-03 09:33N 50°39' W 001°54'4 4.3
2016-Dec-03 08:33N 50°35' W 001°53'23012.8
2016-Dec-02 14:33N 47°31' W 005°26'1715.9
2016-Dec-02 13:29N 47°15' W 005°17'1415.6
2016-Dec-02 12:33N 47°02' W 005°10'6913.9
2016-Dec-02 07:33N 45°58' W 004°32'1615.6
2016-Dec-02 06:32N 45°43' W 004°24'1615.6
2016-Dec-02 05:29N 45°27' W 004°16'1515.5
2016-Dec-02 04:32N 45°14' W 004°08'1515.0
2016-Dec-02 03:32N 44°59' W 004°01'1515.1
2016-Dec-02 02:32N 44°46' W 003°53'298 6.8
2016-Nov-30 06:31N 49°44' W 003°50'1515.1
2016-Nov-30 05:33N 49°53' W 003°33'1514.6
2016-Nov-30 04:33N 50°02' W 003°14'1514.9
2016-Nov-30 03:33N 50°10' W 002°54'1615.4
2016-Nov-30 02:32N 50°17' W 002°32'2416.4
2016-Nov-30 01:04N 50°29' W 001°60'816.0
2016-Nov-30 00:33N 50°36' W 001°54'7 7.0
2016-Nov-29 23:32N 50°42' W 001°59'0 0.0
2016-Nov-29 22:31N 50°42' W 001°59'0 0.0
2016-Nov-29 21:31N 50°42' W 001°59'0 0.0
2016-Nov-29 20:31N 50°42' W 001°59'0 0.1
2016-Nov-29 19:33N 50°42' W 001°60'10 9.6
2016-Nov-29 18:33N 50°34' W 001°53'2216.5
2016-Nov-29 17:15N 50°13' W 002°03'1317.9
2016-Nov-29 16:32N 50°02' W 002°12'12417.5
2016-Nov-29 09:28N 49°03' W 005°01'1517.0
2016-Nov-29 08:33N 48°55' W 005°21'8316.2
2016-Nov-29 03:26N 47°32' W 005°26'1719.2
2016-Nov-29 02:33N 47°17' W 005°17'159 3.2
2016-Nov-27 00:22N 49°45' W 003°51'1315.0
2016-Nov-26 23:29N 49°53' W 003°35'1415.6
2016-Nov-26 22:33N 50°01' W 003°16'1515.5
2016-Nov-26 21:33N 50°08' W 002°55'1715.6
2016-Nov-26 20:29N 50°16' W 002°31'2914.9
2016-Nov-26 18:33N 50°33' W 001°55'10 9.9
2016-Nov-26 17:33N 50°42' W 001°59'0 0.1
2016-Nov-26 16:28N 50°42' W 001°59'0 0.0
2016-Nov-26 15:33N 50°42' W 001°59'0 0.0
2016-Nov-26 14:33N 50°42' W 001°59'0 0.0
2016-Nov-26 13:32N 50°42' W 001°59'0 0.0
2016-Nov-26 12:32N 50°42' W 001°59'0 0.0
2016-Nov-26 11:32N 50°42' W 001°59'0 0.0
2016-Nov-26 10:31N 50°42' W 001°59'1 0.8
2016-Nov-26 09:33N 50°42' W 001°58'8 7.6
2016-Nov-26 08:33N 50°35' W 001°53'  

Dump ship's entire track history